KMCC/MCC METAR and TAF weather

Enter ICAO airport designator
Station Type Date Time Source
KMCC METAR 2022/11/30 16:55 UTC NOAA

KMCC 301655Z AUTO 16005KT 10SM CLR 06/02 A3003 RMK AO2


Station Type Date Time Source
KMCC Decoded METAR 2022/11/30 16:55 UTC NOAA

Sacramento, McClellan Airfield Airport, CA, United States (KMCC) 38-40N 121-24W
Nov 30, 2022 - 11:55 AM EST / 2022.11.30 1655 UTC
Wind: from the SSE (160 degrees) at 6 MPH (5 KT):0
Visibility: 10 mile(s):0
Sky conditions: clear
Temperature: 42 F (6 C)
Dew Point: 35 F (2 C)
Relative Humidity: 75%
Pressure (altimeter): 30.03 in. Hg (1016 hPa)
ob: KMCC 301655Z AUTO 16005KT 10SM CLR 06/02 A3003 RMK AO2
cycle: 17

Station Type Date Time Source
KMCC TAF 2022/11/30 12:24 UTC NOAA

TAF KMCC 301120Z 3012/0112 VRB05KT P6SM SCT200
FM301800 18007KT P6SM BKN200
FM010300 17011KT P6SM OVC050
FM010900 16014G22KT P6SM -RA OVC035

Example: see airport list